ASA65 KSEA-PAKT
Flight info
| Callsign | ASA65 |
|---|---|
| Flight time | 1h 36m |
| Altitude | 36000 |
| Route | BANGR9 PANGL PR ANN |
| Aircraft | B737/M-SDE2E3FGHIRWXY/LB1 |
Departure
| Time | 2026-05-01 10:47 |
|---|---|
| Airport | Seattle–Tacoma International Airport (KSEA) |
Arrival
| Time | 2026-05-01 12:23 |
|---|---|
| Airport | Ketchikan International Airport (PAKT) |
| Time | Latitude | Longitude | Altitude | Speed | Heading |
|---|---|---|---|---|---|
| 2026-05-01 10:23 | 47.44566 | -122.30315 | 399 ft | 0 kts | 270° |
| 2026-05-01 10:33 | 47.44566 | -122.30312 | 402 ft | 2 kts | 270° |
| 2026-05-01 10:34 | 47.44567 | -122.30275 | 396 ft | 4 kts | 256° |
| 2026-05-01 10:34 | 47.44577 | -122.30239 | 402 ft | 4 kts | 234° |
| 2026-05-01 10:34 | 47.44596 | -122.30213 | 400 ft | 4 kts | 203° |
| 2026-05-01 10:35 | 47.44641 | -122.30187 | 401 ft | 4 kts | 212° |
| 2026-05-01 10:35 | 47.44658 | -122.30162 | 401 ft | 3 kts | 263° |
| 2026-05-01 10:35 | 47.44658 | -122.30158 | 401 ft | 2 kts | 266° |
| 2026-05-01 10:39 | 47.44658 | -122.30166 | 404 ft | 2 kts | 266° |
| 2026-05-01 10:40 | 47.44659 | -122.30208 | 403 ft | 6 kts | 277° |
| 2026-05-01 10:40 | 47.44678 | -122.30273 | 402 ft | 8 kts | 307° |
| 2026-05-01 10:40 | 47.44715 | -122.30339 | 405 ft | 9 kts | 310° |
| 2026-05-01 10:40 | 47.44756 | -122.30411 | 406 ft | 9 kts | 310° |
| 2026-05-01 10:41 | 47.44793 | -122.30493 | 406 ft | 11 kts | 297° |
| 2026-05-01 10:41 | 47.44792 | -122.30608 | 402 ft | 14 kts | 231° |
| 2026-05-01 10:41 | 47.44569 | -122.30632 | 396 ft | 15 kts | 180° |
| 2026-05-01 10:42 | 47.44481 | -122.30633 | 392 ft | 12 kts | 180° |
| 2026-05-01 10:42 | 47.44401 | -122.30633 | 393 ft | 11 kts | 180° |
| 2026-05-01 10:42 | 47.44323 | -122.30634 | 391 ft | 11 kts | 180° |
| 2026-05-01 10:42 | 47.44243 | -122.30635 | 388 ft | 12 kts | 180° |
| 2026-05-01 10:43 | 47.44164 | -122.30635 | 386 ft | 12 kts | 180° |
| 2026-05-01 10:43 | 47.44082 | -122.30636 | 385 ft | 12 kts | 180° |
| 2026-05-01 10:43 | 47.44003 | -122.30637 | 383 ft | 11 kts | 180° |
| 2026-05-01 10:43 | 47.43921 | -122.30638 | 380 ft | 13 kts | 180° |
| 2026-05-01 10:44 | 47.43820 | -122.30639 | 377 ft | 15 kts | 181° |
| 2026-05-01 10:44 | 47.43717 | -122.30640 | 374 ft | 14 kts | 180° |
| 2026-05-01 10:44 | 47.43646 | -122.30653 | 371 ft | 8 kts | 205° |
| 2026-05-01 10:44 | 47.43628 | -122.30675 | 370 ft | 2 kts | 228° |
| 2026-05-01 10:45 | 47.43626 | -122.30678 | 370 ft | 0 kts | 231° |
| 2026-05-01 10:45 | 47.43625 | -122.30679 | 370 ft | 1 kts | 232° |
| 2026-05-01 10:45 | 47.43617 | -122.30709 | 368 ft | 6 kts | 255° |
| 2026-05-01 10:45 | 47.43615 | -122.30782 | 367 ft | 7 kts | 274° |
| 2026-05-01 10:46 | 47.43639 | -122.30802 | 368 ft | 4 kts | 358° |
| 2026-05-01 10:46 | 47.43814 | -122.30800 | 375 ft | 60 kts | 360° |
| 2026-05-01 10:46 | 47.44416 | -122.30797 | 390 ft | 123 kts | 360° |
| 2026-05-01 10:46 | 47.45225 | -122.30788 | 471 ft | 157 kts | 359° |
| 2026-05-01 10:47 | 47.46379 | -122.30750 | 930 ft | 169 kts | 2° |
| 2026-05-01 10:47 | 47.47567 | -122.30705 | 1645 ft | 175 kts | 2° |
| 2026-05-01 10:47 | 47.48814 | -122.30686 | 2332 ft | 185 kts | 1° |
| 2026-05-01 10:47 | 47.50187 | -122.30676 | 2794 ft | 209 kts | 0° |
| 2026-05-01 10:48 | 47.51683 | -122.30767 | 3362 ft | 221 kts | 358° |
| 2026-05-01 10:48 | 47.53286 | -122.30869 | 3804 ft | 239 kts | 358° |
| 2026-05-01 10:48 | 47.54999 | -122.31001 | 4337 ft | 254 kts | 354° |
| 2026-05-01 10:48 | 47.56703 | -122.31963 | 4850 ft | 274 kts | 326° |
| 2026-05-01 10:49 | 47.58289 | -122.33622 | 5669 ft | 283 kts | 324° |
| 2026-05-01 10:49 | 47.59917 | -122.35396 | 6443 ft | 296 kts | 317° |
| 2026-05-01 10:49 | 47.61035 | -122.37874 | 7504 ft | 289 kts | 285° |
| 2026-05-01 10:49 | 47.61378 | -122.40744 | 8727 ft | 281 kts | 276° |
| 2026-05-01 10:50 | 47.61657 | -122.43634 | 9684 ft | 285 kts | 277° |
| 2026-05-01 10:50 | 47.61991 | -122.46560 | 10411 ft | 296 kts | 277° |
| 2026-05-01 10:50 | 47.62257 | -122.49735 | 10569 ft | 324 kts | 273° |
| 2026-05-01 10:50 | 47.62426 | -122.53066 | 11478 ft | 324 kts | 272° |
| 2026-05-01 10:51 | 47.62575 | -122.56414 | 12362 ft | 328 kts | 272° |
| 2026-05-01 10:51 | 47.62735 | -122.59815 | 13189 ft | 333 kts | 272° |
| 2026-05-01 10:51 | 47.62908 | -122.63269 | 14016 ft | 339 kts | 272° |
| 2026-05-01 10:51 | 47.63090 | -122.66777 | 14824 ft | 343 kts | 272° |
| 2026-05-01 10:52 | 47.63278 | -122.70312 | 15683 ft | 346 kts | 272° |
| 2026-05-01 10:52 | 47.63467 | -122.73883 | 16520 ft | 349 kts | 272° |
| 2026-05-01 10:52 | 47.63659 | -122.77493 | 17339 ft | 354 kts | 272° |
| 2026-05-01 10:52 | 47.63852 | -122.81153 | 18164 ft | 358 kts | 272° |
| 2026-05-01 10:53 | 47.64046 | -122.84855 | 18912 ft | 362 kts | 272° |
| 2026-05-01 10:53 | 47.64278 | -122.88586 | 19634 ft | 366 kts | 278° |
| 2026-05-01 10:53 | 47.65134 | -122.92119 | 20316 ft | 375 kts | 297° |
| 2026-05-01 10:53 | 47.66744 | -122.95198 | 21055 ft | 382 kts | 311° |
| 2026-05-01 10:54 | 47.68621 | -122.98018 | 21773 ft | 386 kts | 313° |
| 2026-05-01 10:54 | 47.70556 | -123.00812 | 22450 ft | 391 kts | 313° |
| 2026-05-01 10:54 | 47.72524 | -123.03634 | 23074 ft | 395 kts | 313° |
| 2026-05-01 10:54 | 47.74500 | -123.06488 | 23730 ft | 398 kts | 313° |
| 2026-05-01 10:55 | 47.76485 | -123.09378 | 24300 ft | 401 kts | 313° |
| 2026-05-01 10:55 | 47.78477 | -123.12303 | 24872 ft | 404 kts | 312° |
| 2026-05-01 10:55 | 47.80503 | -123.15294 | 25418 ft | 407 kts | 312° |
| 2026-05-01 10:55 | 47.82488 | -123.18237 | 25958 ft | 410 kts | 312° |
| 2026-05-01 10:56 | 47.84515 | -123.21249 | 26529 ft | 412 kts | 312° |
| 2026-05-01 10:56 | 47.86549 | -123.24277 | 27095 ft | 415 kts | 312° |
| 2026-05-01 10:56 | 47.88593 | -123.27324 | 27624 ft | 417 kts | 311° |
| 2026-05-01 10:56 | 47.90650 | -123.30393 | 28119 ft | 420 kts | 311° |
| 2026-05-01 10:57 | 47.92719 | -123.33484 | 28630 ft | 422 kts | 311° |
| 2026-05-01 10:57 | 47.94803 | -123.36600 | 29122 ft | 425 kts | 311° |
| 2026-05-01 10:57 | 47.96898 | -123.39737 | 29548 ft | 429 kts | 311° |
| 2026-05-01 10:57 | 47.99013 | -123.42908 | 29988 ft | 432 kts | 311° |
| 2026-05-01 10:58 | 48.01139 | -123.46098 | 30416 ft | 434 kts | 311° |
| 2026-05-01 10:58 | 48.03273 | -123.49305 | 30800 ft | 437 kts | 311° |
| 2026-05-01 10:58 | 48.05415 | -123.52527 | 31229 ft | 437 kts | 311° |
| 2026-05-01 10:58 | 48.07551 | -123.55744 | 31761 ft | 434 kts | 311° |
| 2026-05-01 10:59 | 48.09673 | -123.58942 | 32332 ft | 431 kts | 311° |
| 2026-05-01 10:59 | 48.11775 | -123.62114 | 32844 ft | 429 kts | 311° |
| 2026-05-01 10:59 | 48.13873 | -123.65287 | 33290 ft | 428 kts | 311° |
| 2026-05-01 10:59 | 48.16090 | -123.68281 | 33683 ft | 432 kts | 320° |
| 2026-05-01 11:00 | 48.18588 | -123.70802 | 34132 ft | 432 kts | 324° |
| 2026-05-01 11:00 | 48.21140 | -123.73164 | 34531 ft | 431 kts | 325° |
| 2026-05-01 11:00 | 48.23693 | -123.75466 | 34475 ft | 431 kts | 327° |
| 2026-05-01 11:00 | 48.26267 | -123.77788 | 35099 ft | 430 kts | 325° |
| 2026-05-01 11:01 | 48.28816 | -123.80117 | 35493 ft | 428 kts | 324° |
| 2026-05-01 11:01 | 48.31352 | -123.82468 | 35738 ft | 429 kts | 324° |
| 2026-05-01 11:01 | 48.33891 | -123.84841 | 35987 ft | 430 kts | 324° |
| 2026-05-01 11:02 | 48.38992 | -123.89669 | 36088 ft | 435 kts | 323° |
| 2026-05-01 11:02 | 48.44085 | -123.94518 | 36068 ft | 429 kts | 323° |
| 2026-05-01 11:03 | 48.49113 | -123.99317 | 36092 ft | 427 kts | 323° |
| 2026-05-01 11:03 | 48.54143 | -124.04132 | 36098 ft | 429 kts | 323° |
| 2026-05-01 11:04 | 48.59183 | -124.08966 | 36106 ft | 429 kts | 323° |
| 2026-05-01 11:04 | 48.64262 | -124.13851 | 36113 ft | 438 kts | 323° |
| 2026-05-01 11:05 | 48.69442 | -124.18845 | 36103 ft | 442 kts | 323° |
| 2026-05-01 11:05 | 48.74631 | -124.23853 | 36104 ft | 442 kts | 323° |
| 2026-05-01 11:06 | 48.79817 | -124.28872 | 36095 ft | 442 kts | 323° |
| 2026-05-01 11:06 | 48.84985 | -124.33886 | 36097 ft | 441 kts | 323° |
| 2026-05-01 11:07 | 48.92717 | -124.41414 | 36098 ft | 439 kts | 323° |
| 2026-05-01 11:07 | 48.97853 | -124.46430 | 36093 ft | 438 kts | 323° |
| 2026-05-01 11:08 | 49.02967 | -124.51437 | 36093 ft | 436 kts | 323° |
| 2026-05-01 11:09 | 49.10612 | -124.58946 | 36123 ft | 436 kts | 322° |
| 2026-05-01 11:09 | 49.15723 | -124.63983 | 36097 ft | 438 kts | 322° |
| 2026-05-01 11:10 | 49.23372 | -124.71542 | 36104 ft | 439 kts | 322° |
| 2026-05-01 11:10 | 49.28499 | -124.76625 | 36106 ft | 440 kts | 322° |
| 2026-05-01 11:11 | 49.33644 | -124.81739 | 36093 ft | 442 kts | 322° |
| 2026-05-01 11:11 | 49.38801 | -124.86877 | 36107 ft | 442 kts | 322° |
| 2026-05-01 11:12 | 49.43965 | -124.92035 | 36100 ft | 443 kts | 322° |
| 2026-05-01 11:12 | 49.49131 | -124.97209 | 36094 ft | 443 kts | 322° |
| 2026-05-01 11:13 | 49.54302 | -125.02400 | 36092 ft | 443 kts | 322° |
| 2026-05-01 11:13 | 49.59465 | -125.07597 | 36098 ft | 443 kts | 322° |
| 2026-05-01 11:14 | 49.64620 | -125.12799 | 36094 ft | 443 kts | 322° |
| 2026-05-01 11:14 | 49.69774 | -125.18014 | 36119 ft | 443 kts | 322° |
| 2026-05-01 11:15 | 49.74929 | -125.23244 | 36107 ft | 443 kts | 321° |
| 2026-05-01 11:15 | 49.80078 | -125.28480 | 36098 ft | 443 kts | 321° |
| 2026-05-01 11:16 | 49.84356 | -125.32841 | 36101 ft | 443 kts | 321° |
| 2026-05-01 11:16 | 49.89498 | -125.38096 | 36097 ft | 443 kts | 321° |
| 2026-05-01 11:17 | 49.94642 | -125.43366 | 36120 ft | 443 kts | 321° |
| 2026-05-01 11:17 | 49.99786 | -125.48650 | 36108 ft | 444 kts | 321° |
| 2026-05-01 11:18 | 50.04934 | -125.53952 | 36119 ft | 444 kts | 321° |
| 2026-05-01 11:18 | 50.10083 | -125.59268 | 36146 ft | 444 kts | 321° |
| 2026-05-01 11:19 | 50.15228 | -125.64594 | 36137 ft | 444 kts | 321° |
| 2026-05-01 11:19 | 50.20374 | -125.69936 | 36134 ft | 444 kts | 321° |
| 2026-05-01 11:20 | 50.25514 | -125.75286 | 36137 ft | 444 kts | 321° |
| 2026-05-01 11:20 | 50.30649 | -125.80644 | 36144 ft | 444 kts | 321° |
| 2026-05-01 11:21 | 50.35781 | -125.86013 | 36145 ft | 443 kts | 321° |
| 2026-05-01 11:21 | 50.40896 | -125.91377 | 36149 ft | 442 kts | 321° |
| 2026-05-01 11:22 | 50.45968 | -125.96712 | 36147 ft | 442 kts | 321° |
| 2026-05-01 11:22 | 50.51067 | -126.02090 | 36173 ft | 442 kts | 321° |
| 2026-05-01 11:23 | 50.56167 | -126.07484 | 36155 ft | 442 kts | 321° |
| 2026-05-01 11:23 | 50.61270 | -126.12893 | 36156 ft | 442 kts | 321° |
| 2026-05-01 11:24 | 50.66368 | -126.18312 | 36149 ft | 442 kts | 321° |
| 2026-05-01 11:25 | 50.74004 | -126.26456 | 36163 ft | 442 kts | 321° |
| 2026-05-01 11:25 | 50.81645 | -126.34638 | 36160 ft | 443 kts | 321° |
| 2026-05-01 11:26 | 50.89283 | -126.42849 | 36154 ft | 443 kts | 321° |
| 2026-05-01 11:27 | 50.94370 | -126.48336 | 36163 ft | 442 kts | 321° |
| 2026-05-01 11:27 | 50.99454 | -126.53835 | 36151 ft | 442 kts | 321° |
| 2026-05-01 11:28 | 51.04529 | -126.59340 | 36146 ft | 441 kts | 321° |
| 2026-05-01 11:28 | 51.09596 | -126.64850 | 36158 ft | 441 kts | 321° |
| 2026-05-01 11:29 | 51.17185 | -126.73131 | 36158 ft | 441 kts | 321° |
| 2026-05-01 11:30 | 51.24774 | -126.81447 | 36155 ft | 442 kts | 321° |
| 2026-05-01 11:30 | 51.29843 | -126.87020 | 36155 ft | 442 kts | 321° |
| 2026-05-01 11:31 | 51.34877 | -126.92569 | 36159 ft | 443 kts | 321° |
| 2026-05-01 11:31 | 51.39941 | -126.98167 | 36151 ft | 442 kts | 321° |
| 2026-05-01 11:32 | 51.45001 | -127.03775 | 36157 ft | 442 kts | 321° |
| 2026-05-01 11:32 | 51.49984 | -127.09302 | 36173 ft | 417 kts | 320° |
| 2026-05-01 11:32 | 51.52302 | -127.11866 | 36156 ft | 392 kts | 320° |
| 2026-05-01 11:33 | 51.54488 | -127.14288 | 36157 ft | 376 kts | 320° |
| 2026-05-01 11:33 | 51.58777 | -127.19093 | 36107 ft | 378 kts | 320° |
| 2026-05-01 11:34 | 51.63066 | -127.23920 | 36169 ft | 386 kts | 320° |
| 2026-05-01 11:34 | 51.67586 | -127.29006 | 36186 ft | 396 kts | 320° |
| 2026-05-01 11:35 | 51.72126 | -127.34119 | 36183 ft | 405 kts | 320° |
| 2026-05-01 11:35 | 51.76766 | -127.39353 | 36183 ft | 412 kts | 320° |
| 2026-05-01 11:36 | 51.81495 | -127.44697 | 36187 ft | 418 kts | 320° |
| 2026-05-01 11:36 | 51.86288 | -127.50130 | 36184 ft | 423 kts | 320° |
| 2026-05-01 11:37 | 51.91129 | -127.55632 | 36176 ft | 427 kts | 320° |
| 2026-05-01 11:37 | 51.96011 | -127.61196 | 36195 ft | 430 kts | 320° |
| 2026-05-01 11:38 | 52.00926 | -127.66813 | 36179 ft | 433 kts | 320° |
| 2026-05-01 11:38 | 52.05866 | -127.72475 | 36162 ft | 436 kts | 320° |
| 2026-05-01 11:39 | 52.10826 | -127.78174 | 36163 ft | 437 kts | 320° |
| 2026-05-01 11:39 | 52.15800 | -127.83906 | 36168 ft | 439 kts | 320° |
| 2026-05-01 11:40 | 52.20790 | -127.89673 | 36168 ft | 440 kts | 320° |
| 2026-05-01 11:40 | 52.25757 | -127.95426 | 36168 ft | 436 kts | 320° |
| 2026-05-01 11:41 | 52.30698 | -128.01170 | 36155 ft | 437 kts | 320° |
| 2026-05-01 11:41 | 52.35647 | -128.06940 | 36162 ft | 437 kts | 320° |
| 2026-05-01 11:42 | 52.40561 | -128.12684 | 36167 ft | 437 kts | 320° |
| 2026-05-01 11:42 | 52.45488 | -128.18459 | 36161 ft | 437 kts | 320° |
| 2026-05-01 11:43 | 52.50431 | -128.24269 | 36178 ft | 437 kts | 320° |
| 2026-05-01 11:43 | 52.55376 | -128.30097 | 36174 ft | 437 kts | 320° |
| 2026-05-01 11:44 | 52.62786 | -128.38864 | 36178 ft | 438 kts | 320° |
| 2026-05-01 11:44 | 52.67728 | -128.44730 | 36184 ft | 438 kts | 320° |
| 2026-05-01 11:45 | 52.72673 | -128.50617 | 36176 ft | 438 kts | 320° |
| 2026-05-01 11:45 | 52.77612 | -128.56514 | 36184 ft | 439 kts | 320° |
| 2026-05-01 11:46 | 52.82553 | -128.62432 | 36192 ft | 439 kts | 321° |
| 2026-05-01 11:46 | 52.87493 | -128.68364 | 36195 ft | 439 kts | 320° |
| 2026-05-01 11:47 | 52.92428 | -128.74305 | 36189 ft | 438 kts | 320° |
| 2026-05-01 11:47 | 52.97358 | -128.80259 | 36179 ft | 438 kts | 320° |
| 2026-05-01 11:48 | 53.02279 | -128.86220 | 36207 ft | 437 kts | 321° |
| 2026-05-01 11:48 | 53.07183 | -128.92177 | 36186 ft | 436 kts | 321° |
| 2026-05-01 11:49 | 53.12070 | -128.98131 | 36196 ft | 435 kts | 320° |
| 2026-05-01 11:49 | 53.16947 | -129.04089 | 36198 ft | 435 kts | 320° |
| 2026-05-01 11:50 | 53.21828 | -129.10070 | 36194 ft | 435 kts | 320° |
| 2026-05-01 11:50 | 53.26665 | -129.16013 | 36194 ft | 435 kts | 320° |
| 2026-05-01 11:51 | 53.31529 | -129.22008 | 36191 ft | 435 kts | 320° |
| 2026-05-01 11:51 | 53.36401 | -129.28029 | 36191 ft | 435 kts | 320° |
| 2026-05-01 11:52 | 53.41255 | -129.34046 | 36191 ft | 435 kts | 320° |
| 2026-05-01 11:52 | 53.46119 | -129.40093 | 36207 ft | 435 kts | 320° |
| 2026-05-01 11:53 | 53.50976 | -129.46148 | 36196 ft | 435 kts | 320° |
| 2026-05-01 11:53 | 53.55827 | -129.52214 | 36200 ft | 435 kts | 320° |
| 2026-05-01 11:54 | 53.60684 | -129.58305 | 36202 ft | 435 kts | 320° |
| 2026-05-01 11:54 | 53.65529 | -129.64399 | 36229 ft | 434 kts | 320° |
| 2026-05-01 11:55 | 53.70351 | -129.70481 | 36213 ft | 431 kts | 320° |
| 2026-05-01 11:55 | 53.72727 | -129.73481 | 36190 ft | 419 kts | 320° |
| 2026-05-01 11:55 | 53.75033 | -129.76395 | 35830 ft | 410 kts | 319° |
| 2026-05-01 11:56 | 53.77284 | -129.79243 | 35452 ft | 400 kts | 319° |
| 2026-05-01 11:56 | 53.79492 | -129.82045 | 35068 ft | 391 kts | 319° |
| 2026-05-01 11:56 | 53.81646 | -129.84782 | 34668 ft | 384 kts | 319° |
| 2026-05-01 11:56 | 53.83755 | -129.87467 | 34280 ft | 377 kts | 319° |
| 2026-05-01 11:57 | 53.85836 | -129.90121 | 33828 ft | 370 kts | 318° |
| 2026-05-01 11:57 | 53.87193 | -129.91852 | 33580 ft | 365 kts | 318° |
| 2026-05-01 11:57 | 53.89866 | -129.95267 | 33058 ft | 356 kts | 318° |
| 2026-05-01 11:57 | 53.91824 | -129.97772 | 32717 ft | 350 kts | 318° |
| 2026-05-01 11:58 | 53.93763 | -130.00258 | 32335 ft | 349 kts | 318° |
| 2026-05-01 11:58 | 53.95723 | -130.02780 | 32006 ft | 359 kts | 318° |
| 2026-05-01 11:58 | 53.99791 | -130.08022 | 31217 ft | 366 kts | 319° |
| 2026-05-01 11:59 | 54.01810 | -130.10615 | 30833 ft | 359 kts | 319° |
| 2026-05-01 11:59 | 54.03762 | -130.13124 | 30455 ft | 351 kts | 319° |
| 2026-05-01 11:59 | 54.05704 | -130.15625 | 30065 ft | 344 kts | 319° |
| 2026-05-01 12:00 | 54.09399 | -130.20399 | 29339 ft | 329 kts | 319° |
| 2026-05-01 12:00 | 54.11203 | -130.22736 | 28976 ft | 325 kts | 319° |
| 2026-05-01 12:00 | 54.14862 | -130.27493 | 28243 ft | 343 kts | 319° |
| 2026-05-01 12:01 | 54.16786 | -130.29999 | 27819 ft | 349 kts | 320° |
| 2026-05-01 12:01 | 54.18703 | -130.32489 | 27370 ft | 342 kts | 320° |
| 2026-05-01 12:01 | 54.20567 | -130.34911 | 26985 ft | 333 kts | 320° |
| 2026-05-01 12:01 | 54.22385 | -130.37278 | 26611 ft | 325 kts | 320° |
| 2026-05-01 12:02 | 54.24161 | -130.39596 | 26230 ft | 319 kts | 320° |
| 2026-05-01 12:02 | 54.25915 | -130.41887 | 25862 ft | 315 kts | 320° |
| 2026-05-01 12:02 | 54.27631 | -130.44200 | 25615 ft | 311 kts | 318° |
| 2026-05-01 12:02 | 54.29315 | -130.46568 | 25281 ft | 320 kts | 318° |
| 2026-05-01 12:03 | 54.31072 | -130.49073 | 24931 ft | 336 kts | 318° |
| 2026-05-01 12:03 | 54.32876 | -130.51649 | 24493 ft | 337 kts | 319° |
| 2026-05-01 12:03 | 54.34657 | -130.54186 | 24084 ft | 329 kts | 319° |
| 2026-05-01 12:03 | 54.36407 | -130.56676 | 23670 ft | 323 kts | 319° |
| 2026-05-01 12:04 | 54.38115 | -130.59107 | 23226 ft | 316 kts | 319° |
| 2026-05-01 12:04 | 54.39228 | -130.60691 | 22956 ft | 311 kts | 319° |
| 2026-05-01 12:04 | 54.40877 | -130.63039 | 22589 ft | 306 kts | 319° |
| 2026-05-01 12:04 | 54.42507 | -130.65362 | 22212 ft | 305 kts | 319° |
| 2026-05-01 12:05 | 54.44146 | -130.67701 | 21848 ft | 307 kts | 319° |
| 2026-05-01 12:05 | 54.47556 | -130.72578 | 21081 ft | 325 kts | 319° |
| 2026-05-01 12:05 | 54.49284 | -130.75051 | 20662 ft | 320 kts | 319° |
| 2026-05-01 12:06 | 54.50973 | -130.77468 | 20261 ft | 313 kts | 319° |
| 2026-05-01 12:06 | 54.52626 | -130.79838 | 19876 ft | 306 kts | 319° |
| 2026-05-01 12:06 | 54.54246 | -130.82163 | 19498 ft | 300 kts | 319° |
| 2026-05-01 12:06 | 54.55837 | -130.84448 | 19143 ft | 297 kts | 319° |
| 2026-05-01 12:07 | 54.57428 | -130.86737 | 18788 ft | 299 kts | 319° |
| 2026-05-01 12:07 | 54.59032 | -130.89048 | 18399 ft | 306 kts | 319° |
| 2026-05-01 12:07 | 54.60681 | -130.91426 | 17978 ft | 314 kts | 320° |
| 2026-05-01 12:07 | 54.62346 | -130.93829 | 17546 ft | 311 kts | 320° |
| 2026-05-01 12:08 | 54.63977 | -130.96185 | 17147 ft | 304 kts | 320° |
| 2026-05-01 12:08 | 54.65579 | -130.98502 | 16754 ft | 297 kts | 319° |
| 2026-05-01 12:08 | 54.67143 | -131.00766 | 16374 ft | 290 kts | 320° |
| 2026-05-01 12:08 | 54.68671 | -131.02980 | 16012 ft | 285 kts | 320° |
| 2026-05-01 12:09 | 54.70189 | -131.05182 | 15661 ft | 285 kts | 320° |
| 2026-05-01 12:09 | 54.71713 | -131.07396 | 15314 ft | 289 kts | 320° |
| 2026-05-01 12:09 | 54.73276 | -131.09668 | 14950 ft | 297 kts | 319° |
| 2026-05-01 12:09 | 54.74873 | -131.11994 | 14544 ft | 300 kts | 319° |
| 2026-05-01 12:10 | 54.76470 | -131.14319 | 13963 ft | 299 kts | 319° |
| 2026-05-01 12:10 | 54.79578 | -131.18854 | 13056 ft | 287 kts | 319° |
| 2026-05-01 12:10 | 54.81081 | -131.21051 | 12672 ft | 281 kts | 319° |
| 2026-05-01 12:11 | 54.83994 | -131.25314 | 11940 ft | 268 kts | 319° |
| 2026-05-01 12:11 | 54.85416 | -131.27398 | 11601 ft | 268 kts | 319° |
| 2026-05-01 12:11 | 54.86851 | -131.29505 | 11260 ft | 273 kts | 319° |
| 2026-05-01 12:12 | 54.88322 | -131.31666 | 10902 ft | 281 kts | 319° |
| 2026-05-01 12:12 | 54.89819 | -131.33867 | 10516 ft | 280 kts | 319° |
| 2026-05-01 12:12 | 54.91293 | -131.36035 | 10140 ft | 274 kts | 319° |
| 2026-05-01 12:12 | 54.92712 | -131.38125 | 9959 ft | 261 kts | 319° |
| 2026-05-01 12:13 | 54.94081 | -131.40143 | 9601 ft | 255 kts | 319° |
| 2026-05-01 12:13 | 54.95428 | -131.42131 | 9287 ft | 254 kts | 319° |
| 2026-05-01 12:13 | 54.96787 | -131.44139 | 8957 ft | 259 kts | 319° |
| 2026-05-01 12:13 | 54.98183 | -131.46203 | 8620 ft | 265 kts | 319° |
| 2026-05-01 12:14 | 54.99583 | -131.48275 | 8259 ft | 264 kts | 319° |
| 2026-05-01 12:14 | 55.00980 | -131.50344 | 7910 ft | 263 kts | 319° |
| 2026-05-01 12:14 | 55.02366 | -131.52396 | 7580 ft | 261 kts | 320° |
| 2026-05-01 12:14 | 55.03766 | -131.54389 | 7248 ft | 259 kts | 328° |
| 2026-05-01 12:15 | 55.05457 | -131.55355 | 6914 ft | 256 kts | 359° |
| 2026-05-01 12:15 | 55.07180 | -131.54733 | 6512 ft | 257 kts | 27° |
| 2026-05-01 12:15 | 55.08594 | -131.52873 | 6158 ft | 255 kts | 46° |
| 2026-05-01 12:15 | 55.09773 | -131.50579 | 5813 ft | 254 kts | 49° |
| 2026-05-01 12:16 | 55.10912 | -131.48258 | 5627 ft | 246 kts | 49° |
| 2026-05-01 12:16 | 55.12010 | -131.46043 | 5505 ft | 237 kts | 49° |
| 2026-05-01 12:16 | 55.13075 | -131.43915 | 5381 ft | 228 kts | 49° |
| 2026-05-01 12:16 | 55.14098 | -131.41883 | 5350 ft | 217 kts | 49° |
| 2026-05-01 12:17 | 55.15235 | -131.40268 | 5302 ft | 209 kts | 19° |
| 2026-05-01 12:17 | 55.16649 | -131.40118 | 5191 ft | 209 kts | 345° |
| 2026-05-01 12:17 | 55.17940 | -131.41263 | 4959 ft | 209 kts | 320° |
| 2026-05-01 12:17 | 55.18993 | -131.43001 | 4699 ft | 208 kts | 316° |
| 2026-05-01 12:18 | 55.20023 | -131.44771 | 4455 ft | 205 kts | 316° |
| 2026-05-01 12:18 | 55.21015 | -131.46475 | 4217 ft | 199 kts | 316° |
| 2026-05-01 12:18 | 55.21990 | -131.48142 | 3975 ft | 192 kts | 316° |
| 2026-05-01 12:18 | 55.22941 | -131.49767 | 3743 ft | 185 kts | 316° |
| 2026-05-01 12:19 | 55.23834 | -131.51291 | 3516 ft | 179 kts | 316° |
| 2026-05-01 12:19 | 55.24714 | -131.52796 | 3247 ft | 173 kts | 316° |
| 2026-05-01 12:19 | 55.25558 | -131.54239 | 2971 ft | 165 kts | 317° |
| 2026-05-01 12:19 | 55.26352 | -131.55596 | 2734 ft | 152 kts | 317° |
| 2026-05-01 12:20 | 55.27072 | -131.56831 | 2500 ft | 139 kts | 316° |
| 2026-05-01 12:20 | 55.27750 | -131.57994 | 2280 ft | 135 kts | 316° |
| 2026-05-01 12:20 | 55.28424 | -131.59149 | 2087 ft | 136 kts | 316° |
| 2026-05-01 12:20 | 55.29108 | -131.60339 | 1841 ft | 140 kts | 315° |
| 2026-05-01 12:21 | 55.29784 | -131.61563 | 1599 ft | 138 kts | 315° |
| 2026-05-01 12:21 | 55.30459 | -131.62759 | 1369 ft | 137 kts | 316° |
| 2026-05-01 12:21 | 55.31134 | -131.63921 | 1164 ft | 136 kts | 316° |
| 2026-05-01 12:21 | 55.31828 | -131.65060 | 940 ft | 137 kts | 317° |
| 2026-05-01 12:22 | 55.32513 | -131.66217 | 720 ft | 140 kts | 316° |
| 2026-05-01 12:22 | 55.33217 | -131.67403 | 516 ft | 140 kts | 316° |
| 2026-05-01 12:22 | 55.33901 | -131.68544 | 328 ft | 133 kts | 315° |
| 2026-05-01 12:22 | 55.34556 | -131.69659 | 163 ft | 131 kts | 316° |
| 2026-05-01 12:23 | 55.35116 | -131.70627 | 97 ft | 113 kts | 316° |
| 2026-05-01 12:23 | 55.35622 | -131.71488 | 97 ft | 84 kts | 315° |
| 2026-05-01 12:23 | 55.35905 | -131.71974 | 99 ft | 25 kts | 316° |
| 2026-05-01 12:23 | 55.35952 | -131.72053 | 99 ft | 8 kts | 316° |
| 2026-05-01 12:24 | 55.35995 | -131.72128 | 100 ft | 9 kts | 314° |
| 2026-05-01 12:24 | 55.36045 | -131.72213 | 98 ft | 10 kts | 315° |
| 2026-05-01 12:24 | 55.36098 | -131.72302 | 98 ft | 11 kts | 321° |
| 2026-05-01 12:24 | 55.36165 | -131.72305 | 100 ft | 11 kts | 42° |
| 2026-05-01 12:25 | 55.36181 | -131.72187 | 100 ft | 10 kts | 109° |
| 2026-05-01 12:25 | 55.36043 | -131.71925 | 86 ft | 18 kts | 130° |
| 2026-05-01 12:25 | 55.35953 | -131.71759 | 66 ft | 17 kts | 134° |
| 2026-05-01 12:26 | 55.35875 | -131.71617 | 63 ft | 16 kts | 133° |
| 2026-05-01 12:26 | 55.35720 | -131.71344 | 47 ft | 18 kts | 135° |
| 2026-05-01 12:26 | 55.35654 | -131.71228 | 42 ft | 12 kts | 135° |
| 2026-05-01 12:27 | 55.35614 | -131.71148 | 40 ft | 7 kts | 109° |
| 2026-05-01 12:27 | 55.35658 | -131.71036 | 40 ft | 2 kts | 43° |
| 2026-05-01 12:28 | 55.35662 | -131.71029 | 41 ft | 0 kts | 44° |
| 2026-05-01 12:31 | 55.35663 | -131.71029 | 41 ft | 0 kts | 45° |